sensor_id;sensor_type;location;lat;lon;timestamp;pressure;altitude;pressure_sealevel;temperature;humidity
73824;BME280;62154;54.914;73.444;2023-02-26T00:01:49;101617.16;;;-15.84;85.60
73824;BME280;62154;54.914;73.444;2023-02-26T00:04:17;101623.19;;;-15.74;85.56
73824;BME280;62154;54.914;73.444;2023-02-26T00:06:47;101624.84;;;-15.67;85.19
73824;BME280;62154;54.914;73.444;2023-02-26T00:09:22;101631.88;;;-15.63;85.38
73824;BME280;62154;54.914;73.444;2023-02-26T00:11:52;101612.56;;;-15.74;84.72
73824;BME280;62154;54.914;73.444;2023-02-26T00:14:20;101637.19;;;-15.63;84.96
73824;BME280;62154;54.914;73.444;2023-02-26T00:17:05;101646.03;;;-15.62;84.66
73824;BME280;62154;54.914;73.444;2023-02-26T00:19:35;101629.25;;;-15.66;84.60
73824;BME280;62154;54.914;73.444;2023-02-26T00:22:03;101639.81;;;-15.60;84.65
73824;BME280;62154;54.914;73.444;2023-02-26T00:24:31;101645.19;;;-15.63;84.66
73824;BME280;62154;54.914;73.444;2023-02-26T00:26:59;101643.28;;;-15.54;84.78
73824;BME280;62154;54.914;73.444;2023-02-26T00:29:27;101660.94;;;-15.49;84.77
73824;BME280;62154;54.914;73.444;2023-02-26T00:32:05;101645.88;;;-15.50;84.25
73824;BME280;62154;54.914;73.444;2023-02-26T00:34:33;101651.16;;;-15.48;84.46
73824;BME280;62154;54.914;73.444;2023-02-26T00:37:36;101602.75;;;-15.72;84.15
73824;BME280;62154;54.914;73.444;2023-02-26T00:42:57;101655.66;;;-15.53;83.88
73824;BME280;62154;54.914;73.444;2023-02-26T00:45:25;101645.16;;;-15.64;84.16
73824;BME280;62154;54.914;73.444;2023-02-26T00:51:01;101651.38;;;-15.64;83.62
73824;BME280;62154;54.914;73.444;2023-02-26T00:53:51;101651.41;;;-15.67;83.35
73824;BME280;62154;54.914;73.444;2023-02-26T00:56:32;101653.34;;;-15.78;83.46
73824;BME280;62154;54.914;73.444;2023-02-26T00:59:00;101653.31;;;-15.75;83.52
73824;BME280;62154;54.914;73.444;2023-02-26T01:01:29;101655.97;;;-15.75;83.67
73824;BME280;62154;54.914;73.444;2023-02-26T01:03:56;101653.38;;;-15.80;83.54
73824;BME280;62154;54.914;73.444;2023-02-26T01:06:27;101659.50;;;-15.75;84.01
73824;BME280;62154;54.914;73.444;2023-02-26T01:11:37;101663.03;;;-15.72;83.82
73824;BME280;62154;54.914;73.444;2023-02-26T01:14:05;101663.06;;;-15.74;83.96
73824;BME280;62154;54.914;73.444;2023-02-26T01:22:39;101663.97;;;-15.78;84.25
73824;BME280;62154;54.914;73.444;2023-02-26T01:25:24;101677.16;;;-15.69;84.10
73824;BME280;62154;54.914;73.444;2023-02-26T01:28:04;101671.78;;;-15.66;84.19
73824;BME280;62154;54.914;73.444;2023-02-26T01:30:32;101656.72;;;-15.65;84.12
73824;BME280;62154;54.914;73.444;2023-02-26T01:35:50;101659.22;;;-15.54;84.10
73824;BME280;62154;54.914;73.444;2023-02-26T01:38:38;101655.63;;;-15.49;84.25
73824;BME280;62154;54.914;73.444;2023-02-26T01:41:21;101663.47;;;-15.43;83.74
73824;BME280;62154;54.914;73.444;2023-02-26T01:44:40;101672.25;;;-15.36;83.92
73824;BME280;62154;54.914;73.444;2023-02-26T01:49:57;101674.97;;;-15.40;83.60
73824;BME280;62154;54.914;73.444;2023-02-26T01:55:19;101684.66;;;-15.35;83.67
73824;BME280;62154;54.914;73.444;2023-02-26T01:57:51;101636.28;;;-15.60;83.44
73824;BME280;62154;54.914;73.444;2023-02-26T02:00:23;101681.94;;;-15.32;83.34
73824;BME280;62154;54.914;73.444;2023-02-26T02:03:04;101684.63;;;-15.33;83.60
73824;BME280;62154;54.914;73.444;2023-02-26T02:05:39;101678.47;;;-15.37;83.07
73824;BME280;62154;54.914;73.444;2023-02-26T02:08:11;101673.28;;;-15.45;83.08
73824;BME280;62154;54.914;73.444;2023-02-26T02:10:54;101673.25;;;-15.43;83.46
73824;BME280;62154;54.914;73.444;2023-02-26T02:16:33;101688.97;;;-15.28;83.83
73824;BME280;62154;54.914;73.444;2023-02-26T02:22:34;101693.97;;;-15.07;83.93
73824;BME280;62154;54.914;73.444;2023-02-26T02:25:14;101638.50;;;-15.31;83.76
73824;BME280;62154;54.914;73.444;2023-02-26T02:31:14;101696.53;;;-15.00;83.27
73824;BME280;62154;54.914;73.444;2023-02-26T02:34:00;101699.16;;;-14.97;83.56
73824;BME280;62154;54.914;73.444;2023-02-26T02:42:19;101705.88;;;-14.76;84.22
73824;BME280;62154;54.914;73.444;2023-02-26T02:45:04;101701.25;;;-14.64;84.15
73824;BME280;62154;54.914;73.444;2023-02-26T02:47:37;101708.28;;;-14.60;83.89
73824;BME280;62154;54.914;73.444;2023-02-26T02:50:19;101665.06;;;-14.74;84.13
73824;BME280;62154;54.914;73.444;2023-02-26T02:53:03;101706.13;;;-14.39;84.30
73824;BME280;62154;54.914;73.444;2023-02-26T02:55:50;101702.59;;;-14.40;83.99
73824;BME280;62154;54.914;73.444;2023-02-26T02:58:24;101699.94;;;-14.40;84.51
73824;BME280;62154;54.914;73.444;2023-02-26T03:00:56;101714.78;;;-14.27;84.48
73824;BME280;62154;54.914;73.444;2023-02-26T03:03:34;101718.19;;;-14.18;84.42
73824;BME280;62154;54.914;73.444;2023-02-26T03:06:03;101684.75;;;-14.36;84.40
73824;BME280;62154;54.914;73.444;2023-02-26T03:08:39;101722.44;;;-14.08;84.58
73824;BME280;62154;54.914;73.444;2023-02-26T03:11:09;101718.78;;;-14.04;84.65
73824;BME280;62154;54.914;73.444;2023-02-26T03:13:42;101725.75;;;-13.97;84.41
73824;BME280;62154;54.914;73.444;2023-02-26T03:16:27;101723.94;;;-13.95;84.68
73824;BME280;62154;54.914;73.444;2023-02-26T03:30:42;101725.41;;;-13.80;84.63
73824;BME280;62154;54.914;73.444;2023-02-26T03:39:31;101738.34;;;-13.59;84.79
73824;BME280;62154;54.914;73.444;2023-02-26T03:42:12;101735.56;;;-13.53;85.39
73824;BME280;62154;54.914;73.444;2023-02-26T03:45:08;101735.69;;;-13.59;85.54
73824;BME280;62154;54.914;73.444;2023-02-26T03:47:41;101712.00;;;-13.75;85.90
73824;BME280;62154;54.914;73.444;2023-02-26T03:50:36;101730.31;;;-13.58;85.82
73824;BME280;62154;54.914;73.444;2023-02-26T03:53:48;101729.97;;;-13.41;86.50
73824;BME280;62154;54.914;73.444;2023-02-26T03:56:27;101695.63;;;-13.58;86.77
73824;BME280;62154;54.914;73.444;2023-02-26T03:59:19;101709.28;;;-13.33;86.84
73824;BME280;62154;54.914;73.444;2023-02-26T04:02:11;101703.56;;;-13.16;86.98
73824;BME280;62154;54.914;73.444;2023-02-26T04:05:00;101722.53;;;-12.89;86.53
73824;BME280;62154;54.914;73.444;2023-02-26T04:07:31;101739.03;;;-12.71;86.75
73824;BME280;62154;54.914;73.444;2023-02-26T04:09:59;101742.31;;;-12.62;86.47
73824;BME280;62154;54.914;73.444;2023-02-26T04:12:34;101737.69;;;-12.53;86.49
73824;BME280;62154;54.914;73.444;2023-02-26T04:15:05;101632.13;;;-13.04;86.50
73824;BME280;62154;54.914;73.444;2023-02-26T04:17:41;101738.19;;;-12.37;86.70
73824;BME280;62154;54.914;73.444;2023-02-26T04:20:10;101740.66;;;-12.30;87.06
73824;BME280;62154;54.914;73.444;2023-02-26T04:22:38;101745.84;;;-12.25;87.30
73824;BME280;62154;54.914;73.444;2023-02-26T04:25:12;101736.13;;;-12.27;87.76
73824;BME280;62154;54.914;73.444;2023-02-26T04:27:39;101701.53;;;-12.34;88.02
73824;BME280;62154;54.914;73.444;2023-02-26T04:30:08;101740.72;;;-11.98;88.10
73824;BME280;62154;54.914;73.444;2023-02-26T04:32:36;101732.44;;;-11.90;88.10
73824;BME280;62154;54.914;73.444;2023-02-26T04:35:11;101737.69;;;-11.87;87.90
73824;BME280;62154;54.914;73.444;2023-02-26T04:37:44;101706.22;;;-12.09;87.95
73824;BME280;62154;54.914;73.444;2023-02-26T04:40:12;101725.53;;;-11.98;88.51
73824;BME280;62154;54.914;73.444;2023-02-26T04:42:40;101744.47;;;-11.74;88.85
73824;BME280;62154;54.914;73.444;2023-02-26T04:45:09;101744.16;;;-11.63;88.84
73824;BME280;62154;54.914;73.444;2023-02-26T04:47:43;101746.19;;;-11.41;89.24
73824;BME280;62154;54.914;73.444;2023-02-26T04:50:15;101738.72;;;-11.30;88.60
73824;BME280;62154;54.914;73.444;2023-02-26T04:52:45;101744.06;;;-11.30;88.67
73824;BME280;62154;54.914;73.444;2023-02-26T04:55:13;101723.06;;;-11.44;89.17
73824;BME280;62154;54.914;73.444;2023-02-26T04:57:43;101734.22;;;-11.28;89.33
73824;BME280;62154;54.914;73.444;2023-02-26T05:00:12;101738.25;;;-11.15;89.69
73824;BME280;62154;54.914;73.444;2023-02-26T05:02:46;101743.59;;;-11.15;90.52
73824;BME280;62154;54.914;73.444;2023-02-26T05:05:14;101740.06;;;-11.15;90.74
73824;BME280;62154;54.914;73.444;2023-02-26T05:07:47;101737.19;;;-11.09;91.17
73824;BME280;62154;54.914;73.444;2023-02-26T05:10:20;101731.75;;;-11.06;91.52
73824;BME280;62154;54.914;73.444;2023-02-26T05:12:48;101730.94;;;-11.08;91.85
73824;BME280;62154;54.914;73.444;2023-02-26T05:15:21;101699.41;;;-11.28;92.72
73824;BME280;62154;54.914;73.444;2023-02-26T05:17:52;101741.44;;;-11.02;93.77
73824;BME280;62154;54.914;73.444;2023-02-26T05:20:20;101607.81;;;-11.66;94.36
73824;BME280;62154;54.914;73.444;2023-02-26T05:22:53;101693.19;;;-11.00;94.52
73824;BME280;62154;54.914;73.444;2023-02-26T05:25:30;101734.13;;;-10.68;94.56
73824;BME280;62154;54.914;73.444;2023-02-26T05:28:07;101719.09;;;-10.72;94.35
73824;BME280;62154;54.914;73.444;2023-02-26T05:30:35;101731.38;;;-10.67;94.72
73824;BME280;62154;54.914;73.444;2023-02-26T05:33:08;101732.81;;;-10.55;94.70
73824;BME280;62154;54.914;73.444;2023-02-26T05:35:36;101748.19;;;-10.35;94.95
73824;BME280;62154;54.914;73.444;2023-02-26T05:38:09;101736.31;;;-10.27;94.24
73824;BME280;62154;54.914;73.444;2023-02-26T05:40:37;101738.44;;;-10.36;93.44
73824;BME280;62154;54.914;73.444;2023-02-26T05:43:14;101728.00;;;-10.45;93.37
73824;BME280;62154;54.914;73.444;2023-02-26T05:45:53;101756.47;;;-10.41;93.74
73824;BME280;62154;54.914;73.444;2023-02-26T05:48:22;101721.31;;;-10.58;93.89
73824;BME280;62154;54.914;73.444;2023-02-26T05:50:51;101739.41;;;-10.38;94.13
73824;BME280;62154;54.914;73.444;2023-02-26T05:53:20;101670.06;;;-10.76;93.85
73824;BME280;62154;54.914;73.444;2023-02-26T05:55:48;101690.56;;;-10.48;93.83
73824;BME280;62154;54.914;73.444;2023-02-26T05:58:16;101721.19;;;-10.30;93.48
73824;BME280;62154;54.914;73.444;2023-02-26T06:00:54;101744.59;;;-10.08;93.95
73824;BME280;62154;54.914;73.444;2023-02-26T06:03:23;101748.13;;;-10.06;93.99
73824;BME280;62154;54.914;73.444;2023-02-26T06:05:56;101730.44;;;-10.12;93.88
73824;BME280;62154;54.914;73.444;2023-02-26T06:08:24;101739.44;;;-9.88;94.20
73824;BME280;62154;54.914;73.444;2023-02-26T06:11:02;101732.84;;;-9.79;93.90
73824;BME280;62154;54.914;73.444;2023-02-26T06:13:30;101743.34;;;-9.73;93.55
73824;BME280;62154;54.914;73.444;2023-02-26T06:16:01;101754.03;;;-9.71;93.73
73824;BME280;62154;54.914;73.444;2023-02-26T06:18:29;101720.44;;;-9.83;94.02
73824;BME280;62154;54.914;73.444;2023-02-26T06:20:59;101726.59;;;-9.79;94.32
73824;BME280;62154;54.914;73.444;2023-02-26T06:23:26;101715.09;;;-9.83;94.62
73824;BME280;62154;54.914;73.444;2023-02-26T06:25:58;101729.59;;;-9.63;94.64
73824;BME280;62154;54.914;73.444;2023-02-26T06:28:36;101727.38;;;-9.52;94.95
73824;BME280;62154;54.914;73.444;2023-02-26T06:31:03;101718.38;;;-9.27;95.16
73824;BME280;62154;54.914;73.444;2023-02-26T06:33:31;101714.91;;;-9.07;94.85
73824;BME280;62154;54.914;73.444;2023-02-26T06:36:00;101715.19;;;-8.91;94.95
73824;BME280;62154;54.914;73.444;2023-02-26T06:38:32;101722.56;;;-8.74;94.52
73824;BME280;62154;54.914;73.444;2023-02-26T06:41:01;101731.22;;;-8.66;94.51
73824;BME280;62154;54.914;73.444;2023-02-26T06:43:31;101717.97;;;-8.50;95.08
73824;BME280;62154;54.914;73.444;2023-02-26T06:46:09;101715.91;;;-8.43;94.21
73824;BME280;62154;54.914;73.444;2023-02-26T06:48:37;101715.91;;;-8.23;94.34
73824;BME280;62154;54.914;73.444;2023-02-26T06:51:05;101673.03;;;-8.26;94.19
73824;BME280;62154;54.914;73.444;2023-02-26T06:53:32;101720.44;;;-7.82;93.80
73824;BME280;62154;54.914;73.444;2023-02-26T06:56:09;101713.78;;;-7.94;93.72
73824;BME280;62154;54.914;73.444;2023-02-26T06:58:47;101685.69;;;-7.88;94.17
73824;BME280;62154;54.914;73.444;2023-02-26T07:01:15;101684.88;;;-7.70;93.80
73824;BME280;62154;54.914;73.444;2023-02-26T07:03:43;101722.78;;;-7.34;93.19
73824;BME280;62154;54.914;73.444;2023-02-26T07:06:21;101708.44;;;-7.35;94.97
73824;BME280;62154;54.914;73.444;2023-02-26T07:08:48;101715.94;;;-7.42;95.03
73824;BME280;62154;54.914;73.444;2023-02-26T07:11:15;101685.69;;;-7.88;96.06
73824;BME280;62154;54.914;73.444;2023-02-26T07:13:42;101721.88;;;-7.54;97.63
73824;BME280;62154;54.914;73.444;2023-02-26T07:16:09;101716.06;;;-7.45;97.89
73824;BME280;62154;54.914;73.444;2023-02-26T07:18:42;101716.50;;;-7.54;99.01
73824;BME280;62154;54.914;73.444;2023-02-26T07:21:10;101722.16;;;-7.60;99.82
73824;BME280;62154;54.914;73.444;2023-02-26T07:23:37;101716.66;;;-7.57;100.00
73824;BME280;62154;54.914;73.444;2023-02-26T07:26:10;101715.41;;;-7.50;100.00
73824;BME280;62154;54.914;73.444;2023-02-26T07:28:51;101679.22;;;-7.63;100.00
73824;BME280;62154;54.914;73.444;2023-02-26T07:31:19;101721.69;;;-7.49;100.00
73824;BME280;62154;54.914;73.444;2023-02-26T07:33:47;101723.44;;;-7.48;100.00
73824;BME280;62154;54.914;73.444;2023-02-26T07:36:17;101710.25;;;-7.35;100.00
73824;BME280;62154;54.914;73.444;2023-02-26T07:38:57;101675.34;;;-7.58;100.00
73824;BME280;62154;54.914;73.444;2023-02-26T07:41:30;101708.50;;;-7.56;100.00
73824;BME280;62154;54.914;73.444;2023-02-26T07:43:57;101713.84;;;-7.75;100.00
73824;BME280;62154;54.914;73.444;2023-02-26T07:46:30;101708.72;;;-7.81;100.00
73824;BME280;62154;54.914;73.444;2023-02-26T07:48:58;101712.78;;;-7.91;100.00
73824;BME280;62154;54.914;73.444;2023-02-26T07:51:31;101716.13;;;-7.86;100.00
73824;BME280;62154;54.914;73.444;2023-02-26T07:54:01;101712.50;;;-7.85;100.00
73824;BME280;62154;54.914;73.444;2023-02-26T07:56:31;101710.06;;;-7.71;100.00
73824;BME280;62154;54.914;73.444;2023-02-26T07:58:58;101707.94;;;-7.64;100.00
73824;BME280;62154;54.914;73.444;2023-02-26T08:01:36;101706.66;;;-7.55;100.00
73824;BME280;62154;54.914;73.444;2023-02-26T08:04:04;101710.66;;;-7.45;100.00
73824;BME280;62154;54.914;73.444;2023-02-26T08:06:35;101665.69;;;-7.43;100.00
73824;BME280;62154;54.914;73.444;2023-02-26T08:09:03;101694.47;;;-7.24;100.00
73824;BME280;62154;54.914;73.444;2023-02-26T08:11:33;101652.56;;;-7.50;100.00
73824;BME280;62154;54.914;73.444;2023-02-26T08:14:06;101685.94;;;-7.15;99.90
73824;BME280;62154;54.914;73.444;2023-02-26T08:16:33;101682.88;;;-7.07;99.08
73824;BME280;62154;54.914;73.444;2023-02-26T08:19:03;101701.97;;;-7.12;96.27
73824;BME280;62154;54.914;73.444;2023-02-26T08:21:36;101694.38;;;-7.03;95.65
73824;BME280;62154;54.914;73.444;2023-02-26T08:24:11;101693.94;;;-7.13;93.61
73824;BME280;62154;54.914;73.444;2023-02-26T08:26:39;101689.56;;;-7.16;93.19
73824;BME280;62154;54.914;73.444;2023-02-26T08:29:07;101706.19;;;-7.06;93.15
73824;BME280;62154;54.914;73.444;2023-02-26T08:31:39;101665.19;;;-7.13;91.62
73824;BME280;62154;54.914;73.444;2023-02-26T08:34:17;101650.25;;;-7.20;90.71
73824;BME280;62154;54.914;73.444;2023-02-26T08:36:45;101681.81;;;-6.85;90.77
73824;BME280;62154;54.914;73.444;2023-02-26T08:39:13;101683.56;;;-6.84;89.55
73824;BME280;62154;54.914;73.444;2023-02-26T08:41:40;101687.63;;;-6.76;89.89
73824;BME280;62154;54.914;73.444;2023-02-26T08:44:12;101684.00;;;-6.75;88.54
73824;BME280;62154;54.914;73.444;2023-02-26T08:46:40;101685.16;;;-6.80;87.69
73824;BME280;62154;54.914;73.444;2023-02-26T08:49:07;101696.25;;;-6.67;87.46
73824;BME280;62154;54.914;73.444;2023-02-26T08:51:35;101695.13;;;-6.63;86.73
73824;BME280;62154;54.914;73.444;2023-02-26T08:54:02;101702.59;;;-6.68;85.27
73824;BME280;62154;54.914;73.444;2023-02-26T08:56:30;101712.59;;;-6.90;84.15
73824;BME280;62154;54.914;73.444;2023-02-26T08:59:03;101692.19;;;-7.14;84.97
73824;BME280;62154;54.914;73.444;2023-02-26T09:01:40;101726.22;;;-7.12;84.50
73824;BME280;62154;54.914;73.444;2023-02-26T09:04:20;101715.75;;;-7.18;85.33
73824;BME280;62154;54.914;73.444;2023-02-26T09:06:55;101706.19;;;-7.25;85.00
73824;BME280;62154;54.914;73.444;2023-02-26T09:09:22;101717.03;;;-7.27;85.05
73824;BME280;62154;54.914;73.444;2023-02-26T09:11:50;101705.16;;;-7.23;85.08
73824;BME280;62154;54.914;73.444;2023-02-26T09:14:25;101716.97;;;-7.25;85.04
73824;BME280;62154;54.914;73.444;2023-02-26T09:16:55;101687.25;;;-7.43;85.12
73824;BME280;62154;54.914;73.444;2023-02-26T09:19:22;101705.38;;;-7.27;85.34
73824;BME280;62154;54.914;73.444;2023-02-26T09:21:55;101704.06;;;-7.18;85.06
73824;BME280;62154;54.914;73.444;2023-02-26T09:24:30;101710.06;;;-7.12;85.18
73824;BME280;62154;54.914;73.444;2023-02-26T09:27:05;101709.25;;;-7.14;84.53
73824;BME280;62154;54.914;73.444;2023-02-26T09:29:37;101716.44;;;-7.14;84.69
73824;BME280;62154;54.914;73.444;2023-02-26T09:32:05;101721.13;;;-7.18;84.48
73824;BME280;62154;54.914;73.444;2023-02-26T09:34:45;101717.78;;;-7.23;84.34
73824;BME280;62154;54.914;73.444;2023-02-26T09:37:12;101685.19;;;-7.38;84.66
73824;BME280;62154;54.914;73.444;2023-02-26T09:39:40;101718.06;;;-7.10;84.51
73824;BME280;62154;54.914;73.444;2023-02-26T09:45:30;101714.72;;;-7.34;83.26
73824;BME280;62154;54.914;73.444;2023-02-26T09:48:01;101729.63;;;-7.27;83.80
73824;BME280;62154;54.914;73.444;2023-02-26T09:50:53;101730.91;;;-7.36;83.42
73824;BME280;62154;54.914;73.444;2023-02-26T09:53:26;101728.59;;;-7.44;83.65
73824;BME280;62154;54.914;73.444;2023-02-26T09:56:06;101733.69;;;-7.38;84.35
73824;BME280;62154;54.914;73.444;2023-02-26T09:58:38;101735.16;;;-7.30;84.37
73824;BME280;62154;54.914;73.444;2023-02-26T10:12:33;101740.50;;;-7.10;84.08
73824;BME280;62154;54.914;73.444;2023-02-26T10:15:36;101749.31;;;-7.06;83.47
73824;BME280;62154;54.914;73.444;2023-02-26T10:18:25;101735.09;;;-7.10;83.36
73824;BME280;62154;54.914;73.444;2023-02-26T10:23:56;101727.47;;;-7.19;82.27
73824;BME280;62154;54.914;73.444;2023-02-26T10:26:44;101728.13;;;-7.14;82.39
73824;BME280;62154;54.914;73.444;2023-02-26T10:29:39;101729.72;;;-7.10;82.18
73824;BME280;62154;54.914;73.444;2023-02-26T10:35:16;101724.88;;;-7.22;82.49
73824;BME280;62154;54.914;73.444;2023-02-26T10:37:48;101737.81;;;-7.10;83.01
73824;BME280;62154;54.914;73.444;2023-02-26T10:40:49;101699.75;;;-7.42;82.92
73824;BME280;62154;54.914;73.444;2023-02-26T10:44:05;101740.19;;;-7.23;83.59
73824;BME280;62154;54.914;73.444;2023-02-26T10:52:17;101750.44;;;-7.31;82.84
73824;BME280;62154;54.914;73.444;2023-02-26T10:55:32;101745.06;;;-7.31;82.45
73824;BME280;62154;54.914;73.444;2023-02-26T10:58:32;101748.28;;;-7.23;81.94
73824;BME280;62154;54.914;73.444;2023-02-26T11:01:01;101753.59;;;-7.21;82.30
73824;BME280;62154;54.914;73.444;2023-02-26T11:03:36;101708.13;;;-7.48;82.29
73824;BME280;62154;54.914;73.444;2023-02-26T11:06:05;101750.31;;;-7.28;82.23
73824;BME280;62154;54.914;73.444;2023-02-26T11:08:38;101756.16;;;-7.37;82.27
73824;BME280;62154;54.914;73.444;2023-02-26T11:11:07;101776.25;;;-7.25;82.77
73824;BME280;62154;54.914;73.444;2023-02-26T11:13:40;101752.63;;;-7.39;82.84
73824;BME280;62154;54.914;73.444;2023-02-26T11:16:19;101759.53;;;-7.33;82.98
73824;BME280;62154;54.914;73.444;2023-02-26T11:18:49;101718.59;;;-7.61;83.12
73824;BME280;62154;54.914;73.444;2023-02-26T11:21:37;101746.84;;;-7.50;83.07
73824;BME280;62154;54.914;73.444;2023-02-26T11:24:22;101757.47;;;-7.47;83.34
73824;BME280;62154;54.914;73.444;2023-02-26T11:26:58;101724.34;;;-7.68;83.19
73824;BME280;62154;54.914;73.444;2023-02-26T11:29:41;101772.78;;;-7.48;83.73
73824;BME280;62154;54.914;73.444;2023-02-26T11:32:20;101769.34;;;-7.51;83.96
73824;BME280;62154;54.914;73.444;2023-02-26T11:34:53;101773.72;;;-7.49;84.12
73824;BME280;62154;54.914;73.444;2023-02-26T11:37:30;101743.38;;;-7.73;84.27
73824;BME280;62154;54.914;73.444;2023-02-26T11:43:00;101773.06;;;-7.54;85.05
73824;BME280;62154;54.914;73.444;2023-02-26T11:45:43;101744.25;;;-7.73;84.99
73824;BME280;62154;54.914;73.444;2023-02-26T11:48:23;101773.25;;;-7.59;84.96
73824;BME280;62154;54.914;73.444;2023-02-26T11:51:03;101771.53;;;-7.60;84.86
73824;BME280;62154;54.914;73.444;2023-02-26T11:53:47;101775.94;;;-7.59;85.03
73824;BME280;62154;54.914;73.444;2023-02-26T11:58:53;101766.47;;;-7.67;85.40
73824;BME280;62154;54.914;73.444;2023-02-26T12:01:28;101772.66;;;-7.65;85.54
73824;BME280;62154;54.914;73.444;2023-02-26T12:04:02;101762.81;;;-7.66;85.83
73824;BME280;62154;54.914;73.444;2023-02-26T12:06:35;101774.41;;;-7.64;86.06
73824;BME280;62154;54.914;73.444;2023-02-26T12:09:12;101775.28;;;-7.64;86.23
73824;BME280;62154;54.914;73.444;2023-02-26T12:12:15;101779.66;;;-7.61;86.57
73824;BME280;62154;54.914;73.444;2023-02-26T12:20:34;101775.00;;;-7.58;87.16
73824;BME280;62154;54.914;73.444;2023-02-26T12:26:39;101785.50;;;-7.51;87.59
73824;BME280;62154;54.914;73.444;2023-02-26T12:32:13;101778.38;;;-7.53;88.07
73824;BME280;62154;54.914;73.444;2023-02-26T12:35:08;101781.81;;;-7.49;88.34
73824;BME280;62154;54.914;73.444;2023-02-26T12:41:08;101788.94;;;-7.48;89.50
73824;BME280;62154;54.914;73.444;2023-02-26T12:43:54;101779.03;;;-7.47;89.80
73824;BME280;62154;54.914;73.444;2023-02-26T12:46:56;101772.97;;;-7.53;90.16
73824;BME280;62154;54.914;73.444;2023-02-26T12:50:02;101793.50;;;-7.50;90.98
73824;BME280;62154;54.914;73.444;2023-02-26T12:53:07;101807.53;;;-7.42;90.76
73824;BME280;62154;54.914;73.444;2023-02-26T13:04:48;101806.53;;;-7.39;92.48
73824;BME280;62154;54.914;73.444;2023-02-26T13:08:04;101807.34;;;-7.37;92.79
73824;BME280;62154;54.914;73.444;2023-02-26T13:18:55;101825.78;;;-7.28;93.29
73824;BME280;62154;54.914;73.444;2023-02-26T13:21:44;101818.56;;;-7.27;93.52
73824;BME280;62154;54.914;73.444;2023-02-26T13:24:43;101821.13;;;-7.24;93.62
73824;BME280;62154;54.914;73.444;2023-02-26T13:27:13;101829.06;;;-7.21;93.69
73824;BME280;62154;54.914;73.444;2023-02-26T13:32:31;101829.88;;;-7.19;94.12
73824;BME280;62154;54.914;73.444;2023-02-26T13:35:08;101790.44;;;-7.41;94.44
73824;BME280;62154;54.914;73.444;2023-02-26T13:38:12;101839.50;;;-7.13;94.58
73824;BME280;62154;54.914;73.444;2023-02-26T13:50:04;101854.09;;;-6.98;94.85
73824;BME280;62154;54.914;73.444;2023-02-26T13:53:01;101827.03;;;-7.16;94.79
73824;BME280;62154;54.914;73.444;2023-02-26T13:55:46;101858.63;;;-6.99;95.17
73824;BME280;62154;54.914;73.444;2023-02-26T14:01:13;101871.59;;;-6.88;95.39
73824;BME280;62154;54.914;73.444;2023-02-26T14:03:50;101875.97;;;-6.85;95.64
73824;BME280;62154;54.914;73.444;2023-02-26T14:06:37;101872.41;;;-6.86;95.87
73824;BME280;62154;54.914;73.444;2023-02-26T14:10:22;101879.34;;;-6.80;95.89
73824;BME280;62154;54.914;73.444;2023-02-26T14:12:37;101845.34;;;-7.03;95.97
73824;BME280;62154;54.914;73.444;2023-02-26T14:15:28;101851.28;;;-6.95;96.02
73824;BME280;62154;54.914;73.444;2023-02-26T14:18:05;101880.97;;;-6.76;96.04
73824;BME280;62154;54.914;73.444;2023-02-26T14:20:47;101865.34;;;-6.89;96.27
73824;BME280;62154;54.914;73.444;2023-02-26T14:23:29;101881.91;;;-6.77;96.45
73824;BME280;62154;54.914;73.444;2023-02-26T14:26:04;101887.97;;;-6.72;96.25
73824;BME280;62154;54.914;73.444;2023-02-26T14:28:40;101883.72;;;-6.78;96.32
73824;BME280;62154;54.914;73.444;2023-02-26T14:31:16;101888.41;;;-6.81;96.58
73824;BME280;62154;54.914;73.444;2023-02-26T14:41:56;101872.16;;;-7.00;97.35
73824;BME280;62154;54.914;73.444;2023-02-26T14:44:51;101886.53;;;-7.00;98.06
73824;BME280;62154;54.914;73.444;2023-02-26T14:47:24;101878.63;;;-7.05;98.04
73824;BME280;62154;54.914;73.444;2023-02-26T14:50:05;101895.63;;;-7.02;98.25
73824;BME280;62154;54.914;73.444;2023-02-26T14:52:36;101899.19;;;-7.02;98.21
73824;BME280;62154;54.914;73.444;2023-02-26T14:58:59;101895.75;;;-7.06;98.82
73824;BME280;62154;54.914;73.444;2023-02-26T15:01:35;101890.50;;;-7.09;99.17
73824;BME280;62154;54.914;73.444;2023-02-26T15:07:33;101886.25;;;-7.14;99.33
73824;BME280;62154;54.914;73.444;2023-02-26T15:13:09;101890.09;;;-7.20;99.51
73824;BME280;62154;54.914;73.444;2023-02-26T15:16:03;101900.06;;;-7.22;99.83
73824;BME280;62154;54.914;73.444;2023-02-26T15:18:58;101891.19;;;-7.24;99.67
73824;BME280;62154;54.914;73.444;2023-02-26T15:24:31;101843.75;;;-7.49;99.76
73824;BME280;62154;54.914;73.444;2023-02-26T15:27:02;101894.00;;;-7.27;100.00
73824;BME280;62154;54.914;73.444;2023-02-26T15:29:38;101898.59;;;-7.29;100.00
73824;BME280;62154;54.914;73.444;2023-02-26T15:32:26;101907.44;;;-7.26;100.00
73824;BME280;62154;54.914;73.444;2023-02-26T15:35:00;101878.34;;;-7.38;99.76
73824;BME280;62154;54.914;73.444;2023-02-26T15:37:30;101901.31;;;-7.29;100.00
73824;BME280;62154;54.914;73.444;2023-02-26T15:40:05;101904.88;;;-7.29;100.00
73824;BME280;62154;54.914;73.444;2023-02-26T15:42:36;101899.63;;;-7.32;100.00
73824;BME280;62154;54.914;73.444;2023-02-26T15:47:59;101901.34;;;-7.31;100.00
73824;BME280;62154;54.914;73.444;2023-02-26T15:50:41;101899.75;;;-7.35;100.00
73824;BME280;62154;54.914;73.444;2023-02-26T15:53:23;101872.72;;;-7.54;100.00
73824;BME280;62154;54.914;73.444;2023-02-26T15:55:55;101902.66;;;-7.40;100.00
73824;BME280;62154;54.914;73.444;2023-02-26T16:01:05;101893.88;;;-7.45;100.00
73824;BME280;62154;54.914;73.444;2023-02-26T16:03:42;101906.41;;;-7.44;100.00